createdAt,value
2022-10-13T00:03:40.369Z,4.80
2022-10-13T00:08:43.130Z,3.00
2022-10-13T00:13:47.203Z,3.00
2022-10-13T00:18:50.037Z,4.80
2022-10-13T00:23:53.196Z,4.60
2022-10-13T00:28:57.388Z,3.80
2022-10-13T00:34:00.877Z,2.60
2022-10-13T00:39:03.576Z,3.00
2022-10-13T00:44:08.572Z,3.00
2022-10-13T00:49:12.968Z,4.20
2022-10-13T00:54:22.368Z,5.00
2022-10-13T00:59:29.220Z,3.00
2022-10-13T01:04:33.187Z,3.00
2022-10-13T01:09:37.786Z,3.00
2022-10-13T01:14:47.179Z,3.00
2022-10-13T01:20:21.217Z,3.00
2022-10-13T01:25:33.339Z,3.00
2022-10-13T01:30:38.053Z,2.40
2022-10-13T01:35:48.469Z,3.00
2022-10-13T01:40:52.945Z,5.00
2022-10-13T01:45:58.274Z,2.00
2022-10-13T01:51:00.968Z,3.00
2022-10-13T01:56:03.609Z,2.40
2022-10-13T02:01:15.633Z,2.80
2022-10-13T02:06:22.080Z,2.40
2022-10-13T02:11:24.720Z,3.00
2022-10-13T02:16:29.971Z,3.00
2022-10-13T02:21:32.661Z,2.20
2022-10-13T02:26:38.079Z,2.60
2022-10-13T02:31:48.074Z,2.40
2022-10-13T02:36:50.805Z,2.40
2022-10-13T02:41:53.484Z,2.80
2022-10-13T02:46:57.469Z,3.00
2022-10-13T02:52:00.124Z,3.00
2022-10-13T02:57:02.741Z,2.40
2022-10-13T03:02:06.774Z,3.00
2022-10-13T03:07:10.184Z,2.40
2022-10-13T03:12:12.822Z,2.00
2022-10-13T03:17:16.817Z,3.00
2022-10-13T03:22:19.687Z,2.00
2022-10-13T03:27:22.508Z,2.00
2022-10-13T03:32:26.601Z,2.00
2022-10-13T03:37:30.088Z,2.40
2022-10-13T03:42:33.101Z,2.80
2022-10-13T03:47:37.338Z,3.00
2022-10-13T03:52:40.096Z,2.00
2022-10-13T03:57:42.727Z,2.00
2022-10-13T04:02:47.256Z,3.00
2022-10-13T04:07:49.906Z,2.20
2022-10-13T04:12:54.281Z,2.60
2022-10-13T04:17:58.216Z,3.00
2022-10-13T04:23:00.961Z,2.60
2022-10-13T04:28:03.804Z,3.00
2022-10-13T04:33:09.506Z,2.60
2022-10-13T04:38:12.211Z,3.00
2022-10-13T04:43:15.825Z,2.20
2022-10-13T04:48:19.838Z,2.40
2022-10-13T04:53:23.695Z,2.40
2022-10-13T04:58:26.521Z,2.00
2022-10-13T05:03:30.959Z,2.00
2022-10-13T05:08:33.886Z,2.80
2022-10-13T05:13:36.806Z,3.00
2022-10-13T05:18:40.910Z,2.00
2022-10-13T05:23:43.552Z,2.60
2022-10-13T05:28:46.394Z,2.00
2022-10-13T05:33:50.513Z,2.00
2022-10-13T05:38:59.068Z,2.40
2022-10-13T05:44:03.413Z,2.40
2022-10-13T05:49:07.460Z,2.20
2022-10-13T05:54:11.235Z,2.00
2022-10-13T05:59:14.926Z,2.00
2022-10-13T06:04:25.434Z,2.00
2022-10-13T06:09:28.522Z,2.80
2022-10-13T06:14:31.156Z,2.80
2022-10-13T06:19:35.265Z,1.40
2022-10-13T06:24:43.055Z,2.00
2022-10-13T06:29:46.256Z,3.00
2022-10-13T06:34:50.250Z,1.40
2022-10-13T06:39:52.936Z,2.80
2022-10-13T06:44:55.854Z,2.60
2022-10-13T06:49:59.993Z,2.40
2022-10-13T06:55:02.677Z,3.00
2022-10-13T07:00:06.847Z,3.00
2022-10-13T07:05:12.104Z,5.00
2022-10-13T07:10:16.330Z,5.00
2022-10-13T07:15:19.043Z,5.20
2022-10-13T07:20:26.757Z,5.80
2022-10-13T07:25:29.438Z,6.00
2022-10-13T07:30:32.507Z,19.00
2022-10-13T07:35:39.162Z,19.60
2022-10-13T07:40:41.878Z,21.50
2022-10-13T07:45:44.535Z,18.20
2022-10-13T07:50:48.568Z,16.60
2022-10-13T07:55:51.348Z,16.60
2022-10-13T08:00:57.383Z,14.20
2022-10-13T08:06:03.538Z,15.00
2022-10-13T08:11:07.149Z,14.00
2022-10-13T08:16:10.932Z,14.00
2022-10-13T08:21:57.624Z,11.80
2022-10-13T08:26:40.139Z,12.60
2022-10-13T08:31:43.100Z,12.20
2022-10-13T08:36:47.476Z,11.80
2022-10-13T08:41:50.238Z,13.00
2022-10-13T08:46:57.363Z,12.20
2022-10-13T08:52:03.741Z,12.00
2022-10-13T08:57:06.605Z,11.00
2022-10-13T09:02:12.396Z,11.00
2022-10-13T09:07:18.326Z,10.60
2022-10-13T09:12:24.280Z,14.00
2022-10-13T09:17:27.307Z,11.40
2022-10-13T09:22:32.316Z,10.80
2022-10-13T09:27:44.173Z,11.40
2022-10-13T09:32:46.825Z,11.00
2022-10-13T09:38:02.512Z,12.00
2022-10-13T09:43:07.318Z,10.80
2022-10-13T09:48:17.028Z,12.00
2022-10-13T09:53:24.031Z,11.60
2022-10-13T09:58:29.216Z,11.00
2022-10-13T10:03:34.274Z,10.00
2022-10-13T10:09:02.099Z,10.40
2022-10-13T10:14:22.716Z,15.80
2022-10-13T10:19:28.305Z,16.20
2022-10-13T10:24:35.015Z,12.20
2022-10-13T10:29:41.633Z,13.80
2022-10-13T10:34:47.767Z,12.60
2022-10-13T10:39:53.640Z,12.00
2022-10-13T10:44:56.353Z,12.80
2022-10-13T10:50:02.679Z,12.00
2022-10-13T10:55:12.067Z,11.20
2022-10-13T11:00:16.299Z,11.40
2022-10-13T11:05:19.160Z,10.40
2022-10-13T11:10:23.593Z,11.80
2022-10-13T11:15:27.313Z,15.00
2022-10-13T11:20:49.182Z,18.50
2022-10-13T11:25:53.155Z,20.75
2022-10-13T11:30:56.001Z,22.00
2022-10-13T11:35:58.686Z,25.00
2022-10-13T11:41:10.422Z,22.00
2022-10-13T11:46:21.116Z,25.00
2022-10-13T11:51:31.897Z,23.50
2022-10-13T11:56:39.706Z,21.75
2022-10-13T12:01:44.951Z,22.25
2022-10-13T12:06:48.469Z,22.50
2022-10-13T12:11:58.878Z,21.25
2022-10-13T12:17:02.359Z,21.00
2022-10-13T12:22:12.530Z,18.25
2022-10-13T12:27:21.471Z,18.00
2022-10-13T12:32:25.489Z,18.25
2022-10-13T12:37:29.057Z,19.25
2022-10-13T12:42:33.831Z,16.80
2022-10-13T12:47:38.023Z,17.00
2022-10-13T12:52:40.753Z,16.80
2022-10-13T12:57:46.013Z,16.00
2022-10-13T13:02:51.142Z,16.75
2022-10-13T13:07:53.913Z,16.50
2022-10-13T13:13:00.732Z,15.80
2022-10-13T13:18:29.346Z,15.60
2022-10-13T13:23:35.396Z,14.00
2022-10-13T13:28:41.214Z,14.20
2022-10-13T13:33:45.547Z,14.20
2022-10-13T13:38:48.345Z,15.00
2022-10-13T13:43:52.332Z,13.00
2022-10-13T13:48:55.145Z,11.60
2022-10-13T13:53:57.788Z,12.40
2022-10-13T13:59:01.767Z,12.60
2022-10-13T14:04:04.444Z,11.20
2022-10-13T14:09:07.107Z,12.00
2022-10-13T14:14:11.204Z,12.80
2022-10-13T14:19:13.878Z,12.00
2022-10-13T14:24:16.710Z,9.00
2022-10-13T14:29:20.708Z,12.00
2022-10-13T14:34:23.440Z,10.40
2022-10-13T14:39:26.100Z,10.00
2022-10-13T14:44:30.419Z,10.00
2022-10-13T14:49:33.302Z,11.20
2022-10-13T14:54:36.014Z,11.20
2022-10-13T14:59:40.871Z,12.00
2022-10-13T15:04:43.682Z,13.00
2022-10-13T15:09:53.208Z,11.00
2022-10-13T15:15:06.195Z,11.00
2022-10-13T15:20:10.230Z,9.00
2022-10-13T15:25:13.106Z,11.00
2022-10-13T15:30:17.541Z,8.20
2022-10-13T15:35:20.469Z,8.00
2022-10-13T15:40:23.166Z,7.80
2022-10-13T15:45:27.294Z,8.20
2022-10-13T15:50:30.192Z,9.60
2022-10-13T15:55:33.166Z,9.00
2022-10-13T16:00:37.263Z,8.80
2022-10-13T16:05:41.444Z,9.80
2022-10-13T16:10:44.111Z,11.00
2022-10-13T16:15:57.188Z,9.20
2022-10-13T16:21:00.167Z,9.60
2022-10-13T16:26:02.911Z,10.60
2022-10-13T16:31:08.855Z,8.20
2022-10-13T16:36:14.163Z,8.80
2022-10-13T16:41:18.129Z,10.40
2022-10-13T16:46:22.200Z,9.80
2022-10-13T16:51:25.718Z,9.80
2022-10-13T16:56:28.596Z,8.00
2022-10-13T17:01:33.016Z,7.40
2022-10-13T17:06:38.573Z,8.00
2022-10-13T17:11:42.650Z,7.60
2022-10-13T17:16:46.772Z,7.00
2022-10-13T17:21:49.792Z,7.60
2022-10-13T17:26:52.513Z,8.80
2022-10-13T17:31:56.481Z,9.80
2022-10-13T17:36:59.221Z,9.80
2022-10-13T17:42:02.254Z,9.80
2022-10-13T17:47:06.516Z,8.00
2022-10-13T17:52:09.349Z,7.00
2022-10-13T17:57:12.026Z,8.60
2022-10-13T18:02:16.203Z,7.80
2022-10-13T18:07:19.302Z,8.00
2022-10-13T18:12:22.638Z,7.00
2022-10-13T18:17:26.639Z,8.00
2022-10-13T18:22:29.395Z,7.80
2022-10-13T18:27:32.967Z,8.00
2022-10-13T18:32:37.061Z,7.20
2022-10-13T18:37:40.139Z,8.20
2022-10-13T18:42:46.586Z,7.00
2022-10-13T18:47:52.862Z,9.40
2022-10-13T18:52:55.622Z,16.80
2022-10-13T18:57:58.281Z,13.60
2022-10-13T19:03:02.281Z,12.80
2022-10-13T19:08:09.276Z,12.20
2022-10-13T19:13:11.991Z,12.00
2022-10-13T19:18:16.010Z,13.00
2022-10-13T19:23:22.012Z,11.80
2022-10-13T19:28:25.251Z,12.60
2022-10-13T19:33:31.637Z,12.00
2022-10-13T19:38:34.392Z,13.20
2022-10-13T19:43:37.175Z,10.60
2022-10-13T19:48:41.254Z,10.80
2022-10-13T19:53:44.049Z,10.80
2022-10-13T19:58:46.837Z,11.60
2022-10-13T20:03:51.012Z,10.80
2022-10-13T20:08:53.747Z,9.20
2022-10-13T20:13:56.404Z,9.80
2022-10-13T20:19:01.142Z,10.60
2022-10-13T20:24:03.815Z,11.00
2022-10-13T20:29:06.565Z,9.00
2022-10-13T20:34:11.712Z,8.00
2022-10-13T20:39:14.550Z,9.00
2022-10-13T20:44:17.222Z,9.00
2022-10-13T20:49:21.421Z,9.80
2022-10-13T20:54:24.356Z,8.60
2022-10-13T20:59:27.043Z,10.00
2022-10-13T21:04:31.187Z,9.00
2022-10-13T21:09:35.057Z,8.20
2022-10-13T21:14:37.897Z,8.80
2022-10-13T21:19:41.883Z,8.00
2022-10-13T21:24:44.503Z,9.00
2022-10-13T21:29:47.216Z,8.40
2022-10-13T21:34:53.947Z,9.40
2022-10-13T21:39:57.427Z,9.00
2022-10-13T21:45:00.129Z,7.60
2022-10-13T21:50:04.494Z,9.60
2022-10-13T21:55:08.451Z,8.20
2022-10-13T22:00:12.307Z,8.00
2022-10-13T22:05:16.756Z,8.00
2022-10-13T22:10:20.829Z,7.80
2022-10-13T22:15:23.443Z,7.20
2022-10-13T22:20:27.534Z,7.00
2022-10-13T22:25:30.234Z,7.60
2022-10-13T22:30:32.880Z,7.20
2022-10-13T22:35:37.070Z,6.80
2022-10-13T22:40:39.721Z,8.00
2022-10-13T22:45:50.647Z,7.80
2022-10-13T22:50:54.700Z,7.00
2022-10-13T22:55:57.533Z,7.20
2022-10-13T23:01:05.672Z,7.20
2022-10-13T23:06:13.604Z,7.00
2022-10-13T23:11:16.439Z,7.60
2022-10-13T23:16:20.298Z,6.40
2022-10-13T23:21:26.947Z,6.00
2022-10-13T23:26:30.014Z,7.80
2022-10-13T23:31:32.832Z,7.00
2022-10-13T23:36:37.022Z,6.20
2022-10-13T23:41:39.930Z,6.00
2022-10-13T23:46:42.889Z,6.00
2022-10-13T23:51:47.684Z,6.60
2022-10-13T23:56:50.516Z,7.00
